Time;durP1;ratioP1;P1;durP2;ratioP2;P2;SDS_P1;SDS_P2;PMS_P1;PMS_P2;Temp;Humidity;BMP_temperature;BMP_pressure;BME280_temperature;BME280_humidity;BME280_pressure;Samples;Min_cycle;Max_cycle;Signal;HPM_P1;HPM_P2
2021/08/02 00:02:01;;;;;;;;;;;;;;;;;;5052918;28;19955;-70
2021/08/02 00:04:26;;;;;;;;;;;;;;;;;;5048413;28;20291;-70
2021/08/02 00:06:52;;;;;;;;;;;;;;;;;;5053807;28;20046;-70
2021/08/02 00:09:18;;;;;;;;;;;;;;;;;;5052662;28;19952;-69
2021/08/02 00:11:44;;;;;;;;;;;;;;;;;;5053261;28;19916;-70
2021/08/02 00:14:10;;;;;;;;;;;;;;;;;;5053483;28;19920;-70
2021/08/02 00:16:36;;;;;;;;;;;;;;;;;;5053061;28;19982;-69
2021/08/02 00:19:02;;;;;;;;;;;;;;;;;;5053126;28;20249;-70
2021/08/02 00:21:28;;;;;;;;;;;;;;;;;;5042680;28;20340;-69
2021/08/02 00:23:54;;;;;;;;;;;;;;;;;;5045626;28;19913;-69
2021/08/02 00:26:19;;;;;;;;;;;;;;;;;;5052913;28;20380;-70
2021/08/02 00:28:45;;;;;;;;;;;;;;;;;;5052948;28;19920;-70
2021/08/02 00:31:11;;;;;;;;;;;;;;;;;;5053257;28;19916;-70
2021/08/02 00:33:37;;;;;;;;;;;;;;;;;;5052723;28;19913;-69
2021/08/02 00:36:03;;;;;;;;;;;;;;;;;;5052728;28;20397;-69
2021/08/02 00:38:29;;;;;;;;;;;;;;;;;;5052627;28;19915;-70
2021/08/02 00:40:55;;;;;;;;;;;;;;;;;;5052253;28;19929;-69
2021/08/02 00:43:21;;;;;;;;;;;;;;;;;;5053578;28;20004;-69
2021/08/02 00:45:47;;;;;;;;;;;;;;;;;;5052658;28;20397;-69
2021/08/02 00:48:13;;;;;;;;;;;;;;;;;;5052291;28;19921;-68
2021/08/02 00:50:38;;;;;;;;;;;;;;;;;;5049334;28;20003;-69
2021/08/02 00:53:04;;;;;;;;;;;;;;;;;;5052347;28;20360;-69
2021/08/02 00:55:30;;;;;;;;;;;;;;;;;;5053046;28;20428;-69
2021/08/02 00:57:56;;;;;;;;;;;;;;;;;;5052136;28;19956;-70
2021/08/02 01:00:22;;;;;;;;;;;;;;;;;;5045769;28;19963;-70
2021/08/02 01:02:48;;;;;;;;;;;;;;;;;;5043585;28;19991;-69
2021/08/02 01:05:14;;;;;;;;;;;;;;;;;;5049224;28;20384;-69
2021/08/02 01:07:40;;;;;;;;;;;;;;;;;;5051884;28;19909;-69
2021/08/02 01:10:06;;;;;;;;;;;;;;;;;;5052335;28;19917;-69
2021/08/02 01:12:31;;;;;;;;;;;;;;;;;;5052209;28;19917;-69
2021/08/02 01:14:57;;;;;;;;;;;;;;;;;;5052041;28;19996;-69
2021/08/02 01:17:23;;;;;;;;;;;;;;;;;;5051923;28;19912;-70
2021/08/02 01:19:49;;;;;;;;;;;;;;;;;;5051629;28;19919;-69
2021/08/02 01:22:16;;;;;;;;;;;;;;;;;;5049188;28;19912;-69
2021/08/02 01:24:41;;;;;;;;;;;;;;;;;;5052149;28;19974;-69
2021/08/02 01:27:08;;;;;;;;;;;;;;;;;;5051976;28;20352;-69
2021/08/02 01:29:34;;;;;;;;;;;;;;;;;;5051432;28;20467;-70
2021/08/02 01:31:59;;;;;;;;;;;;;;;;;;5051555;28;19987;-69
2021/08/02 01:34:25;;;;;;;;;;;;;;;;;;5052332;28;19908;-69
2021/08/02 01:36:51;;;;;;;;;;;;;;;;;;5052155;28;19913;-69
2021/08/02 01:39:17;;;;;;;;;;;;;;;;;;5050711;28;20509;-70
2021/08/02 01:41:43;;;;;;;;;;;;;;;;;;5051494;28;19968;-69
2021/08/02 01:44:09;;;;;;;;;;;;;;;;;;5051667;28;19966;-69
2021/08/02 01:46:35;;;;;;;;;;;;;;;;;;5051500;28;19947;-69
2021/08/02 01:49:01;;;;;;;;;;;;;;;;;;5051505;28;19921;-69
2021/08/02 01:51:27;;;;;;;;;;;;;;;;;;5048190;28;19921;-70
2021/08/02 01:53:52;;;;;;;;;;;;;;;;;;5051556;28;19936;-69
2021/08/02 01:56:18;;;;;;;;;;;;;;;;;;5051213;28;19921;-69
2021/08/02 01:58:44;;;;;;;;;;;;;;;;;;5050932;28;20380;-69
2021/08/02 02:01:10;;;;;;;;;;;;;;;;;;5051679;28;20013;-69
2021/08/02 02:03:36;;;;;;;;;;;;;;;;;;5051193;28;19920;-69
2021/08/02 02:06:02;;;;;;;;;;;;;;;;;;5048015;28;19952;-69
2021/08/02 02:08:28;;;;;;;;;;;;;;;;;;5050717;28;19920;-69
2021/08/02 02:10:53;;;;;;;;;;;;;;;;;;5051111;28;19966;-69
2021/08/02 02:13:19;;;;;;;;;;;;;;;;;;5033940;28;20007;-69
2021/08/02 02:15:45;;;;;;;;;;;;;;;;;;5050578;28;19917;-69
2021/08/02 02:18:11;;;;;;;;;;;;;;;;;;5050756;28;19912;-69
2021/08/02 02:20:37;;;;;;;;;;;;;;;;;;5047561;28;19960;-70
2021/08/02 02:23:03;;;;;;;;;;;;;;;;;;5051140;28;19982;-70
2021/08/02 02:25:29;;;;;;;;;;;;;;;;;;5051517;28;19952;-69
2021/08/02 02:27:55;;;;;;;;;;;;;;;;;;5051282;28;19908;-69
2021/08/02 02:30:21;;;;;;;;;;;;;;;;;;5049949;28;20055;-69
2021/08/02 02:32:46;;;;;;;;;;;;;;;;;;5050975;28;19912;-69
2021/08/02 02:35:12;;;;;;;;;;;;;;;;;;5050915;28;20253;-70
2021/08/02 02:37:38;;;;;;;;;;;;;;;;;;5050647;28;19999;-69
2021/08/02 02:40:04;;;;;;;;;;;;;;;;;;5051012;28;19909;-69
2021/08/02 02:42:30;;;;;;;;;;;;;;;;;;5049952;28;19920;-69
2021/08/02 02:44:56;;;;;;;;;;;;;;;;;;5050965;28;19920;-69
2021/08/02 02:47:22;;;;;;;;;;;;;;;;;;5050370;28;19959;-69
2021/08/02 02:49:48;;;;;;;;;;;;;;;;;;5051096;28;19990;-69
2021/08/02 02:52:14;;;;;;;;;;;;;;;;;;5046170;28;19909;-69
2021/08/02 02:54:39;;;;;;;;;;;;;;;;;;5049082;28;19919;-69
2021/08/02 02:57:06;;;;;;;;;;;;;;;;;;5050785;28;20364;-70
2021/08/02 02:59:32;;;;;;;;;;;;;;;;;;5050146;28;20024;-69
2021/08/02 03:01:57;;;;;;;;;;;;;;;;;;5050561;28;20436;-70
2021/08/02 03:04:23;;;;;;;;;;;;;;;;;;5048608;28;19908;-69
2021/08/02 03:06:49;;;;;;;;;;;;;;;;;;5050132;28;19935;-69
2021/08/02 03:09:15;;;;;;;;;;;;;;;;;;5050507;28;20043;-69
2021/08/02 03:11:41;;;;;;;;;;;;;;;;;;5049732;28;20467;-69
2021/08/02 03:14:07;;;;;;;;;;;;;;;;;;5050767;28;19974;-68
2021/08/02 03:16:33;;;;;;;;;;;;;;;;;;5050405;28;19913;-69
2021/08/02 03:18:59;;;;;;;;;;;;;;;;;;5051044;28;20003;-69
2021/08/02 03:21:24;;;;;;;;;;;;;;;;;;5047249;28;20325;-69
2021/08/02 03:23:50;;;;;;;;;;;;;;;;;;5050844;28;19917;-69
2021/08/02 03:26:16;;;;;;;;;;;;;;;;;;5050588;28;20280;-69
2021/08/02 03:28:42;;;;;;;;;;;;;;;;;;5054425;28;19924;-69
2021/08/02 03:31:08;;;;;;;;;;;;;;;;;;5052353;28;20402;-70
2021/08/02 03:33:34;;;;;;;;;;;;;;;;;;5053938;28;19913;-71
2021/08/02 03:36:00;;;;;;;;;;;;;;;;;;5053651;28;19920;-69
2021/08/02 03:38:26;;;;;;;;;;;;;;;;;;5054279;28;19920;-69
2021/08/02 03:40:51;;;;;;;;;;;;;;;;;;5053631;28;19925;-70
2021/08/02 03:43:17;;;;;;;;;;;;;;;;;;5054615;28;19916;-70
2021/08/02 03:45:43;;;;;;;;;;;;;;;;;;5053572;28;19912;-69
2021/08/02 03:48:09;;;;;;;;;;;;;;;;;;5053825;28;19917;-69
2021/08/02 03:50:35;;;;;;;;;;;;;;;;;;5050022;28;19917;-69
2021/08/02 03:53:01;;;;;;;;;;;;;;;;;;5053968;28;20012;-69
2021/08/02 03:55:27;;;;;;;;;;;;;;;;;;5054597;28;19932;-69
2021/08/02 03:57:53;;;;;;;;;;;;;;;;;;5053688;28;19935;-69
2021/08/02 04:00:21;;;;;;;;;;;;;;;;;;5053150;28;20012;-69
2021/08/02 04:02:48;;;;;;;;;;;;;;;;;;5053344;28;19960;-69
2021/08/02 04:05:14;;;;;;;;;;;;;;;;;;5050245;28;19913;-69
2021/08/02 04:07:43;;;;;;;;;;;;;;;;;;5053727;28;19908;-69
2021/08/02 04:10:09;;;;;;;;;;;;;;;;;;5052180;28;20284;-69
2021/08/02 04:12:35;;;;;;;;;;;;;;;;;;5035244;28;19913;-70
2021/08/02 04:15:01;;;;;;;;;;;;;;;;;;5048647;28;19995;-70
2021/08/02 04:17:26;;;;;;;;;;;;;;;;;;5041151;28;19971;-70
2021/08/02 04:19:52;;;;;;;;;;;;;;;;;;5053406;28;19913;-70
2021/08/02 04:22:18;;;;;;;;;;;;;;;;;;5050701;28;20364;-70
2021/08/02 04:24:44;;;;;;;;;;;;;;;;;;5052903;28;19960;-71
2021/08/02 04:27:10;;;;;;;;;;;;;;;;;;5052787;28;19920;-70
2021/08/02 04:29:36;;;;;;;;;;;;;;;;;;5052834;28;19928;-70
2021/08/02 04:32:02;;;;;;;;;;;;;;;;;;5052914;28;20386;-70
2021/08/02 04:34:28;;;;;;;;;;;;;;;;;;5053547;28;19909;-71
2021/08/02 04:36:54;;;;;;;;;;;;;;;;;;5052628;28;19912;-71
2021/08/02 04:39:19;;;;;;;;;;;;;;;;;;5052963;28;19913;-69
2021/08/02 04:41:45;;;;;;;;;;;;;;;;;;5052817;28;19920;-71
2021/08/02 04:44:11;;;;;;;;;;;;;;;;;;5052639;28;19913;-70
2021/08/02 04:46:37;;;;;;;;;;;;;;;;;;5052229;28;19913;-70
2021/08/02 04:49:03;;;;;;;;;;;;;;;;;;5053267;28;20384;-69
2021/08/02 04:51:29;;;;;;;;;;;;;;;;;;5049493;28;19917;-69
2021/08/02 04:53:55;;;;;;;;;;;;;;;;;;5052500;28;19913;-69
2021/08/02 04:56:21;;;;;;;;;;;;;;;;;;5052342;28;19917;-68
2021/08/02 04:58:47;;;;;;;;;;;;;;;;;;5052604;28;20311;-68
2021/08/02 05:01:12;;;;;;;;;;;;;;;;;;5053185;28;19920;-67
2021/08/02 05:03:39;;;;;;;;;;;;;;;;;;5052281;28;19966;-66
2021/08/02 05:06:05;;;;;;;;;;;;;;;;;;5044212;28;19920;-66
2021/08/02 05:08:31;;;;;;;;;;;;;;;;;;5040926;28;19921;-68
2021/08/02 05:10:57;;;;;;;;;;;;;;;;;;5047990;28;19992;-68
2021/08/02 05:13:23;;;;;;;;;;;;;;;;;;5048675;28;19913;-68
2021/08/02 05:15:48;;;;;;;;;;;;;;;;;;5033913;28;19920;-68
2021/08/02 05:18:14;;;;;;;;;;;;;;;;;;5051162;28;19971;-68
2021/08/02 05:20:40;;;;;;;;;;;;;;;;;;5048999;28;19948;-68
2021/08/02 05:23:06;;;;;;;;;;;;;;;;;;5051502;28;19916;-68
2021/08/02 05:25:32;;;;;;;;;;;;;;;;;;5050887;28;19909;-68
2021/08/02 05:27:58;;;;;;;;;;;;;;;;;;5052379;28;19909;-68
2021/08/02 05:30:24;;;;;;;;;;;;;;;;;;5051081;28;19995;-68
2021/08/02 05:32:50;;;;;;;;;;;;;;;;;;5051703;28;20324;-68
2021/08/02 05:35:16;;;;;;;;;;;;;;;;;;5051864;28;19980;-68
2021/08/02 05:37:41;;;;;;;;;;;;;;;;;;5052122;28;20368;-67
2021/08/02 05:40:07;;;;;;;;;;;;;;;;;;5052027;28;20345;-67
2021/08/02 05:42:35;;;;;;;;;;;;;;;;;;5033760;28;19921;-67
2021/08/02 05:45:01;;;;;;;;;;;;;;;;;;5051160;28;20015;-68
2021/08/02 05:47:27;;;;;;;;;;;;;;;;;;5051778;28;19944;-68
2021/08/02 05:49:53;;;;;;;;;;;;;;;;;;5050678;28;20539;-68
2021/08/02 05:52:18;;;;;;;;;;;;;;;;;;5032674;28;19956;-68
2021/08/02 05:54:44;;;;;;;;;;;;;;;;;;5049748;28;19962;-68
2021/08/02 05:57:10;;;;;;;;;;;;;;;;;;5051356;28;19917;-68
2021/08/02 05:59:36;;;;;;;;;;;;;;;;;;5051644;28;20365;-68
2021/08/02 06:02:02;;;;;;;;;;;;;;;;;;5051607;28;19913;-66
2021/08/02 06:04:28;;;;;;;;;;;;;;;;;;5048217;28;19914;-68
2021/08/02 06:06:54;;;;;;;;;;;;;;;;;;5051557;28;20019;-69
2021/08/02 06:09:20;;;;;;;;;;;;;;;;;;5051146;28;19917;-71
2021/08/02 06:11:46;;;;;;;;;;;;;;;;;;5051078;28;19920;-70
2021/08/02 06:14:12;;;;;;;;;;;;;;;;;;5051051;28;19935;-68
2021/08/02 06:16:37;;;;;;;;;;;;;;;;;;5051407;28;19988;-68
2021/08/02 06:19:03;;;;;;;;;;;;;;;;;;5051821;28;19916;-68
2021/08/02 06:21:29;;;;;;;;;;;;;;;;;;5047985;28;19912;-70
2021/08/02 06:23:55;;;;;;;;;;;;;;;;;;5046544;28;20379;-69
2021/08/02 06:26:21;;;;;;;;;;;;;;;;;;5050559;28;19913;-70
2021/08/02 06:28:47;;;;;;;;;;;;;;;;;;5050968;28;19928;-69
2021/08/02 06:31:13;;;;;;;;;;;;;;;;;;5051739;28;20287;-68
2021/08/02 06:33:39;;;;;;;;;;;;;;;;;;5051097;28;19909;-69
2021/08/02 06:36:05;;;;;;;;;;;;;;;;;;5050451;28;20461;-70
2021/08/02 06:38:34;;;;;;;;;;;;;;;;;;5050726;28;19920;-61
2021/08/02 06:41:00;;;;;;;;;;;;;;;;;;5050871;28;19939;-61
2021/08/02 06:43:26;;;;;;;;;;;;;;;;;;5051764;28;20007;-61
2021/08/02 06:45:52;;;;;;;;;;;;;;;;;;5050418;28;19920;-61
2021/08/02 06:48:18;;;;;;;;;;;;;;;;;;5035945;28;19921;-63
2021/08/02 06:50:43;;;;;;;;;;;;;;;;;;5048904;28;19916;-61
2021/08/02 06:53:09;;;;;;;;;;;;;;;;;;5049164;28;19920;-61
2021/08/02 06:55:35;;;;;;;;;;;;;;;;;;5049914;28;19992;-61
2021/08/02 06:58:01;;;;;;;;;;;;;;;;;;5037858;28;20372;-59
2021/08/02 07:00:27;;;;;;;;;;;;;;;;;;5045214;28;19966;-61
2021/08/02 07:02:53;;;;;;;;;;;;;;;;;;5052723;28;19999;-61
2021/08/02 07:05:21;;;;;;;;;;;;;;;;;;5050364;28;20024;-61
2021/08/02 07:07:46;;;;;;;;;;;;;;;;;;5053409;28;19916;-58
2021/08/02 07:10:12;;;;;;;;;;;;;;;;;;5054038;28;19928;-61
2021/08/02 07:12:38;;;;;;;;;;;;;;;;;;5036837;28;19913;-59
2021/08/02 07:15:04;;;;;;;;;;;;;;;;;;5052671;28;20021;-61
2021/08/02 07:17:30;;;;;;;;;;;;;;;;;;5042030;28;19917;-61
2021/08/02 07:19:56;;;;;;;;;;;;;;;;;;5053630;28;19921;-60
2021/08/02 07:22:22;;;;;;;;;;;;;;;;;;5047876;28;19909;-60
2021/08/02 07:24:48;;;;;;;;;;;;;;;;;;5047212;28;19919;-60
2021/08/02 07:27:13;;;;;;;;;;;;;;;;;;5037552;28;19914;-60
2021/08/02 07:29:39;;;;;;;;;;;;;;;;;;5053121;28;19921;-60
2021/08/02 07:32:05;;;;;;;;;;;;;;;;;;5053264;28;19919;-60
2021/08/02 07:34:31;;;;;;;;;;;;;;;;;;5054265;28;20287;-60
2021/08/02 07:36:57;;;;;;;;;;;;;;;;;;5053112;28;19909;-60
2021/08/02 07:39:23;;;;;;;;;;;;;;;;;;5047974;28;19913;-60
2021/08/02 07:41:49;;;;;;;;;;;;;;;;;;5053796;28;20265;-60
2021/08/02 07:44:15;;;;;;;;;;;;;;;;;;5053437;28;19956;-60
2021/08/02 07:46:41;;;;;;;;;;;;;;;;;;5053668;28;19913;-60
2021/08/02 07:49:07;;;;;;;;;;;;;;;;;;5054475;28;19917;-59
2021/08/02 07:51:34;;;;;;;;;;;;;;;;;;5042462;28;19952;-59
2021/08/02 07:54:01;;;;;;;;;;;;;;;;;;5041071;28;19952;-59
2021/08/02 07:56:29;;;;;;;;;;;;;;;;;;5052843;28;20391;-60
2021/08/02 07:58:55;;;;;;;;;;;;;;;;;;5037837;28;20139;-59
2021/08/02 08:01:21;;;;;;;;;;;;;;;;;;5043703;28;19917;-59
2021/08/02 08:03:46;;;;;;;;;;;;;;;;;;5049321;28;20012;-59
2021/08/02 08:06:12;;;;;;;;;;;;;;;;;;5051926;28;20372;-59
2021/08/02 08:08:38;;;;;;;;;;;;;;;;;;5052937;28;19916;-59
2021/08/02 08:11:04;;;;;;;;;;;;;;;;;;5052039;28;20396;-60
2021/08/02 08:13:30;;;;;;;;;;;;;;;;;;5052929;28;19916;-60
2021/08/02 08:15:56;;;;;;;;;;;;;;;;;;5052820;28;19983;-59
2021/08/02 08:18:22;;;;;;;;;;;;;;;;;;5047672;28;19967;-59
2021/08/02 08:20:48;;;;;;;;;;;;;;;;;;5040497;28;19913;-60
2021/08/02 08:23:13;;;;;;;;;;;;;;;;;;5051131;28;19912;-60
2021/08/02 08:25:39;;;;;;;;;;;;;;;;;;5052906;28;20267;-60
2021/08/02 08:28:05;;;;;;;;;;;;;;;;;;5031993;28;20314;-60
2021/08/02 08:30:31;;;;;;;;;;;;;;;;;;5052907;28;19927;-60
2021/08/02 08:32:57;;;;;;;;;;;;;;;;;;5052710;28;19916;-60
2021/08/02 08:35:23;;;;;;;;;;;;;;;;;;5052987;28;19913;-60
2021/08/02 08:37:49;;;;;;;;;;;;;;;;;;5036423;28;19921;-60
2021/08/02 08:40:15;;;;;;;;;;;;;;;;;;5053049;28;20428;-60
2021/08/02 08:42:41;;;;;;;;;;;;;;;;;;5052780;28;19928;-60
2021/08/02 08:45:07;;;;;;;;;;;;;;;;;;5048273;28;19970;-60
2021/08/02 08:47:35;;;;;;;;;;;;;;;;;;5026987;28;19920;-60
2021/08/02 08:50:00;;;;;;;;;;;;;;;;;;5043604;28;19927;-60
2021/08/02 08:52:26;;;;;;;;;;;;;;;;;;5040924;28;20358;-60
2021/08/02 08:54:52;;;;;;;;;;;;;;;;;;5041816;28;19913;-60
2021/08/02 08:57:18;;;;;;;;;;;;;;;;;;5044228;28;19986;-60
2021/08/02 08:59:44;;;;;;;;;;;;;;;;;;5052021;28;20405;-60
2021/08/02 09:02:10;;;;;;;;;;;;;;;;;;5052320;28;19913;-60
2021/08/02 09:04:37;;;;;;;;;;;;;;;;;;5049129;28;20444;-60
2021/08/02 09:07:03;;;;;;;;;;;;;;;;;;5051738;28;19959;-60
2021/08/02 09:09:29;;;;;;;;;;;;;;;;;;5051467;28;19960;-60
2021/08/02 09:11:55;;;;;;;;;;;;;;;;;;5051988;28;20016;-60
2021/08/02 09:14:21;;;;;;;;;;;;;;;;;;5051591;28;19948;-60
2021/08/02 09:16:47;;;;;;;;;;;;;;;;;;5051195;28;19913;-60
2021/08/02 09:19:13;;;;;;;;;;;;;;;;;;5051045;28;19909;-60
2021/08/02 09:21:39;;;;;;;;;;;;;;;;;;5028443;28;19935;-60
2021/08/02 09:24:05;;;;;;;;;;;;;;;;;;5049043;28;19913;-60
2021/08/02 09:26:31;;;;;;;;;;;;;;;;;;5049400;28;19970;-60
2021/08/02 09:28:57;;;;;;;;;;;;;;;;;;5048699;28;19923;-60
2021/08/02 09:31:23;;;;;;;;;;;;;;;;;;5049825;28;20041;-60
2021/08/02 09:33:49;;;;;;;;;;;;;;;;;;5038318;28;19974;-60
2021/08/02 09:36:14;;;;;;;;;;;;;;;;;;5046401;28;20264;-60
2021/08/02 09:38:40;;;;;;;;;;;;;;;;;;5051237;28;19919;-60
2021/08/02 09:41:06;;;;;;;;;;;;;;;;;;5051380;28;19975;-60
2021/08/02 09:43:33;;;;;;;;;;;;;;;;;;5051172;28;19978;-60
2021/08/02 09:45:59;;;;;;;;;;;;;;;;;;5052063;28;19964;-60
2021/08/02 09:48:25;;;;;;;;;;;;;;;;;;5050751;28;20010;-60
2021/08/02 09:50:50;;;;;;;;;;;;;;;;;;5048230;28;19928;-60
2021/08/02 09:53:16;;;;;;;;;;;;;;;;;;5033695;28;19913;-60
2021/08/02 09:55:43;;;;;;;;;;;;;;;;;;5050998;28;19913;-60
2021/08/02 09:58:09;;;;;;;;;;;;;;;;;;5031828;28;19916;-60
2021/08/02 10:00:35;;;;;;;;;;;;;;;;;;5045587;28;19913;-60
2021/08/02 10:03:01;;;;;;;;;;;;;;;;;;5051357;28;19940;-60
2021/08/02 10:05:26;;;;;;;;;;;;;;;;;;5047607;28;19995;-60
2021/08/02 10:07:52;;;;;;;;;;;;;;;;;;5051249;28;19920;-60
2021/08/02 10:10:18;;;;;;;;;;;;;;;;;;5051756;28;19920;-60
2021/08/02 10:12:44;;;;;;;;;;;;;;;;;;5051261;28;20012;-60
2021/08/02 10:15:10;;;;;;;;;;;;;;;;;;5051216;28;19924;-60
2021/08/02 10:17:36;;;;;;;;;;;;;;;;;;5050792;28;19917;-60
2021/08/02 10:20:04;;;;;;;;;;;;;;;;;;5050591;28;20011;-60
2021/08/02 10:22:30;;;;;;;;;;;;;;;;;;5048403;28;20348;-60
2021/08/02 10:24:58;;;;;;;;;;;;;;;;;;5050576;28;20394;-60
2021/08/02 10:27:24;;;;;;;;;;;;;;;;;;5048370;28;19921;-60
2021/08/02 10:29:50;;;;;;;;;;;;;;;;;;5050791;28;19925;-60
2021/08/02 10:32:16;;;;;;;;;;;;;;;;;;5050683;28;19959;-60
2021/08/02 10:34:41;;;;;;;;;;;;;;;;;;5051980;28;19974;-60
2021/08/02 10:37:07;;;;;;;;;;;;;;;;;;5042566;28;19913;-60
2021/08/02 10:39:33;;;;;;;;;;;;;;;;;;5054307;28;20383;-60
2021/08/02 10:41:59;;;;;;;;;;;;;;;;;;5056951;28;19927;-60
2021/08/02 10:44:25;;;;;;;;;;;;;;;;;;5057555;28;20376;-60
2021/08/02 10:46:51;;;;;;;;;;;;;;;;;;5057638;28;19917;-60
2021/08/02 10:49:17;;;;;;;;;;;;;;;;;;5040062;28;19921;-60
2021/08/02 10:51:43;;;;;;;;;;;;;;;;;;5054415;28;20070;-60
2021/08/02 10:54:08;;;;;;;;;;;;;;;;;;5056848;28;19936;-61
2021/08/02 10:56:34;;;;;;;;;;;;;;;;;;5057462;28;19919;-60
2021/08/02 10:59:00;;;;;;;;;;;;;;;;;;5057237;28;20291;-60
2021/08/02 11:01:26;;;;;;;;;;;;;;;;;;5057597;28;19974;-60
2021/08/02 11:03:52;;;;;;;;;;;;;;;;;;5057508;28;19919;-60
2021/08/02 11:06:18;;;;;;;;;;;;;;;;;;5036203;28;19916;-60
2021/08/02 11:08:44;;;;;;;;;;;;;;;;;;5056770;28;19921;-60
2021/08/02 11:11:10;;;;;;;;;;;;;;;;;;5057099;28;19912;-60
2021/08/02 11:13:36;;;;;;;;;;;;;;;;;;5039580;28;19909;-60
2021/08/02 11:16:04;;;;;;;;;;;;;;;;;;5057436;28;19955;-60
2021/08/02 11:18:29;;;;;;;;;;;;;;;;;;5057020;28;20352;-60
2021/08/02 11:20:55;;;;;;;;;;;;;;;;;;5054018;28;20000;-60
2021/08/02 11:23:21;;;;;;;;;;;;;;;;;;5057011;28;19916;-60
2021/08/02 11:25:47;;;;;;;;;;;;;;;;;;5056858;28;19952;-60
2021/08/02 11:28:13;;;;;;;;;;;;;;;;;;5057848;28;19916;-60
2021/08/02 11:30:39;;;;;;;;;;;;;;;;;;5056600;28;19936;-60
2021/08/02 11:33:05;;;;;;;;;;;;;;;;;;5057109;28;19916;-60
2021/08/02 11:35:31;;;;;;;;;;;;;;;;;;5057221;28;19913;-60
2021/08/02 11:37:56;;;;;;;;;;;;;;;;;;5045524;28;19921;-60
2021/08/02 11:40:26;;;;;;;;;;;;;;;;;;5057031;28;20335;-60
2021/08/02 11:42:52;;;;;;;;;;;;;;;;;;5057076;28;19913;-60
2021/08/02 11:45:19;;;;;;;;;;;;;;;;;;5056655;28;20369;-60
2021/08/02 11:47:45;;;;;;;;;;;;;;;;;;5053241;28;19913;-60
2021/08/02 11:50:11;;;;;;;;;;;;;;;;;;5053223;28;19927;-60
2021/08/02 11:52:36;;;;;;;;;;;;;;;;;;5050966;28;20308;-60
2021/08/02 11:55:02;;;;;;;;;;;;;;;;;;5054394;28;19916;-60
2021/08/02 11:57:28;;;;;;;;;;;;;;;;;;5053471;28;20264;-60
2021/08/02 11:59:55;;;;;;;;;;;;;;;;;;5052995;28;19963;-60
2021/08/02 12:02:21;;;;;;;;;;;;;;;;;;5053372;28;19920;-60
2021/08/02 12:04:46;;;;;;;;;;;;;;;;;;5050012;28;19909;-60
2021/08/02 12:07:12;;;;;;;;;;;;;;;;;;5054412;28;20054;-60
2021/08/02 12:09:39;;;;;;;;;;;;;;;;;;5051110;28;20542;-60
2021/08/02 12:12:04;;;;;;;;;;;;;;;;;;5052560;28;19913;-60
2021/08/02 12:14:30;;;;;;;;;;;;;;;;;;5053261;28;19919;-60
2021/08/02 12:16:56;;;;;;;;;;;;;;;;;;5052873;28;20273;-60
2021/08/02 12:19:22;;;;;;;;;;;;;;;;;;5054082;28;19974;-60
2021/08/02 12:21:48;;;;;;;;;;;;;;;;;;5049709;28;20356;-60
2021/08/02 12:24:14;;;;;;;;;;;;;;;;;;5053209;28;19920;-60
2021/08/02 12:26:40;;;;;;;;;;;;;;;;;;5052074;28;20008;-60
2021/08/02 12:29:06;;;;;;;;;;;;;;;;;;5053166;28;19996;-60
2021/08/02 12:31:38;;;;;;;;;;;;;;;;;;5053262;28;19912;-60
2021/08/02 12:34:04;;;;;;;;;;;;;;;;;;5053092;28;20019;-60
2021/08/02 12:36:30;;;;;;;;;;;;;;;;;;5052924;28;20596;-60
2021/08/02 12:38:56;;;;;;;;;;;;;;;;;;5052170;28;19917;-60
2021/08/02 12:41:22;;;;;;;;;;;;;;;;;;5052378;28;20257;-60
2021/08/02 12:43:52;;;;;;;;;;;;;;;;;;5052996;28;19908;-60
2021/08/02 12:46:18;;;;;;;;;;;;;;;;;;5053575;28;20015;-60
2021/08/02 12:48:44;;;;;;;;;;;;;;;;;;5052331;28;20360;-60
2021/08/02 12:51:10;;;;;;;;;;;;;;;;;;5049364;28;19913;-60
2021/08/02 12:53:36;;;;;;;;;;;;;;;;;;5052148;28;20416;-60
2021/08/02 12:56:02;;;;;;;;;;;;;;;;;;5052078;28;19920;-60
2021/08/02 12:58:28;;;;;;;;;;;;;;;;;;5052686;28;19962;-60
2021/08/02 13:00:54;;;;;;;;;;;;;;;;;;5052137;28;19913;-60
2021/08/02 13:03:20;;;;;;;;;;;;;;;;;;5051751;28;19974;-61
2021/08/02 13:05:46;;;;;;;;;;;;;;;;;;5049203;28;19920;-60
2021/08/02 13:08:12;;;;;;;;;;;;;;;;;;5052569;28;19913;-60
2021/08/02 13:10:38;;;;;;;;;;;;;;;;;;5052095;28;19917;-60
2021/08/02 13:13:04;;;;;;;;;;;;;;;;;;5053045;28;20059;-60
2021/08/02 13:15:30;;;;;;;;;;;;;;;;;;5052145;28;19979;-60
2021/08/02 13:17:56;;;;;;;;;;;;;;;;;;5033728;28;19913;-61
2021/08/02 13:20:22;;;;;;;;;;;;;;;;;;5050471;28;19913;-60
2021/08/02 13:22:53;;;;;;;;;;;;;;;;;;5050583;28;19908;-60
2021/08/02 13:28:04;;;;;;;;;;;;;;;;;;5037297;28;19920;-60
2021/08/02 13:30:30;;;;;;;;;;;;;;;;;;5048132;28;19924;-61
2021/08/02 13:32:56;;;;;;;;;;;;;;;;;;5051686;28;20636;-61
2021/08/02 13:35:22;;;;;;;;;;;;;;;;;;5051917;28;19971;-60
2021/08/02 13:37:48;;;;;;;;;;;;;;;;;;5051551;28;19908;-61
2021/08/02 13:40:14;;;;;;;;;;;;;;;;;;5051829;28;19970;-61
2021/08/02 13:42:40;;;;;;;;;;;;;;;;;;5051161;28;20008;-61
2021/08/02 13:45:05;;;;;;;;;;;;;;;;;;5051460;28;19919;-61
2021/08/02 13:47:31;;;;;;;;;;;;;;;;;;5051527;28;20007;-60
2021/08/02 13:49:57;;;;;;;;;;;;;;;;;;5035188;28;19921;-61
2021/08/02 13:52:23;;;;;;;;;;;;;;;;;;5048366;28;19943;-61
2021/08/02 13:54:49;;;;;;;;;;;;;;;;;;5051231;28;20316;-60
2021/08/02 13:57:15;;;;;;;;;;;;;;;;;;5051421;28;19913;-60
2021/08/02 13:59:41;;;;;;;;;;;;;;;;;;5051273;28;19912;-60
2021/08/02 14:02:07;;;;;;;;;;;;;;;;;;5050858;28;19923;-61
2021/08/02 14:04:33;;;;;;;;;;;;;;;;;;5048025;28;19909;-60
2021/08/02 14:06:59;;;;;;;;;;;;;;;;;;5051547;28;19905;-60
2021/08/02 14:09:25;;;;;;;;;;;;;;;;;;5050581;28;19928;-60
2021/08/02 14:11:51;;;;;;;;;;;;;;;;;;5050475;28;19917;-62
2021/08/02 14:14:16;;;;;;;;;;;;;;;;;;5051356;28;19935;-61
2021/08/02 14:16:42;;;;;;;;;;;;;;;;;;5050736;28;19920;-61
2021/08/02 14:19:08;;;;;;;;;;;;;;;;;;5051451;28;19916;-61
2021/08/02 14:21:34;;;;;;;;;;;;;;;;;;5047194;28;19912;-60
2021/08/02 14:24:00;;;;;;;;;;;;;;;;;;5050621;28;20414;-60
2021/08/02 14:26:26;;;;;;;;;;;;;;;;;;5033130;28;19921;-61
2021/08/02 14:28:53;;;;;;;;;;;;;;;;;;5050495;28;19927;-61
2021/08/02 14:31:19;;;;;;;;;;;;;;;;;;5051492;28;20442;-61
2021/08/02 14:33:45;;;;;;;;;;;;;;;;;;5050653;28;19913;-61
2021/08/02 14:36:11;;;;;;;;;;;;;;;;;;5051063;28;19956;-60
2021/08/02 14:38:37;;;;;;;;;;;;;;;;;;5050876;28;19935;-61
2021/08/02 14:41:03;;;;;;;;;;;;;;;;;;5050253;28;20384;-72
2021/08/02 14:43:29;;;;;;;;;;;;;;;;;;5050841;28;19917;-72
2021/08/02 14:45:55;;;;;;;;;;;;;;;;;;5051049;28;19912;-72
2021/08/02 14:48:20;;;;;;;;;;;;;;;;;;5050575;28;20279;-73
2021/08/02 14:50:46;;;;;;;;;;;;;;;;;;5047638;28;20000;-72
2021/08/02 14:53:15;;;;;;;;;;;;;;;;;;5050097;28;19913;-72
2021/08/02 14:55:42;;;;;;;;;;;;;;;;;;5050990;28;19909;-72
2021/08/02 14:58:08;;;;;;;;;;;;;;;;;;5051051;28;20008;-72
2021/08/02 15:00:33;;;;;;;;;;;;;;;;;;5050571;28;19999;-72
2021/08/02 15:02:59;;;;;;;;;;;;;;;;;;5050387;28;20371;-72
2021/08/02 15:05:25;;;;;;;;;;;;;;;;;;5047508;28;20054;-72
2021/08/02 15:07:51;;;;;;;;;;;;;;;;;;5031887;28;19997;-72
2021/08/02 15:10:17;;;;;;;;;;;;;;;;;;5051215;28;19924;-72
2021/08/02 15:12:43;;;;;;;;;;;;;;;;;;5045645;28;19991;-72
2021/08/02 15:15:09;;;;;;;;;;;;;;;;;;5046700;28;20019;-72
2021/08/02 15:17:35;;;;;;;;;;;;;;;;;;5050033;28;19909;-72
2021/08/02 15:20:01;;;;;;;;;;;;;;;;;;5049974;28;20008;-72
2021/08/02 15:22:26;;;;;;;;;;;;;;;;;;5050351;28;19913;-72
2021/08/02 15:24:52;;;;;;;;;;;;;;;;;;5053486;28;19910;-72
2021/08/02 15:27:18;;;;;;;;;;;;;;;;;;5054241;28;19979;-72
2021/08/02 15:29:44;;;;;;;;;;;;;;;;;;5054253;28;20315;-72
2021/08/02 15:32:10;;;;;;;;;;;;;;;;;;5053975;28;19913;-72
2021/08/02 15:34:36;;;;;;;;;;;;;;;;;;5053949;28;19909;-72
2021/08/02 15:37:02;;;;;;;;;;;;;;;;;;5054560;28;19963;-72
2021/08/02 15:39:28;;;;;;;;;;;;;;;;;;5054114;28;19970;-72
2021/08/02 15:41:54;;;;;;;;;;;;;;;;;;5046583;28;19921;-73
2021/08/02 15:44:20;;;;;;;;;;;;;;;;;;5043567;28;19913;-73
2021/08/02 15:46:45;;;;;;;;;;;;;;;;;;5050622;28;19909;-73
2021/08/02 15:49:11;;;;;;;;;;;;;;;;;;5053945;28;20393;-73
2021/08/02 15:51:37;;;;;;;;;;;;;;;;;;5047874;28;19920;-72
2021/08/02 15:54:03;;;;;;;;;;;;;;;;;;5053649;28;19912;-72
2021/08/02 15:56:29;;;;;;;;;;;;;;;;;;5053575;28;20023;-73
2021/08/02 15:58:55;;;;;;;;;;;;;;;;;;5053809;28;19913;-73
2021/08/02 16:01:21;;;;;;;;;;;;;;;;;;5053929;28;19908;-72
2021/08/02 16:03:47;;;;;;;;;;;;;;;;;;5053598;28;19952;-72
2021/08/02 16:06:12;;;;;;;;;;;;;;;;;;5050123;28;19915;-73
2021/08/02 16:08:38;;;;;;;;;;;;;;;;;;5053067;28;19924;-73
2021/08/02 16:11:04;;;;;;;;;;;;;;;;;;5053137;28;19917;-72
2021/08/02 16:13:30;;;;;;;;;;;;;;;;;;5053683;28;20360;-73
2021/08/02 16:15:56;;;;;;;;;;;;;;;;;;5041939;28;20003;-73
2021/08/02 16:18:22;;;;;;;;;;;;;;;;;;5048670;28;19913;-73
2021/08/02 16:20:48;;;;;;;;;;;;;;;;;;5049915;28;20004;-73
2021/08/02 16:23:14;;;;;;;;;;;;;;;;;;5053284;28;19909;-73
2021/08/02 16:25:39;;;;;;;;;;;;;;;;;;5052689;28;19920;-72
2021/08/02 16:28:05;;;;;;;;;;;;;;;;;;5053880;28;20056;-73
2021/08/02 16:30:31;;;;;;;;;;;;;;;;;;5052959;28;19934;-72
2021/08/02 16:32:57;;;;;;;;;;;;;;;;;;5051593;28;19913;-72
2021/08/02 16:35:23;;;;;;;;;;;;;;;;;;5052673;28;20343;-72
2021/08/02 16:37:49;;;;;;;;;;;;;;;;;;5052487;28;19913;-72
2021/08/02 16:40:15;;;;;;;;;;;;;;;;;;5053310;28;20050;-73